Airfield :
LOGIN :

Register | Disclaimer

   EN    FR    IT 

 










Legend :    VFR   Marginal VFR   IFR   Intensive IFR   Very Intensive IFR
Visi :
Ceiling :
>= 8 km
>= 3000ft
5 to 8 km
1000 to 3000 ft
1500m to 5 km
500 to 1000 ft
800 to 1500m
200 to 500 ft
< 800m
< 200 ft
Symbols :   Thunderstorms  Fog  Heavy snow  Heavy precipitations  Wind > 20 kt
SIGMETs :     Misc.  Thunderstorms  Icing  Turbulence  Mountain Waves  Volcanic Ashes






- Airport Elevation : 364 ft


LFAQ - Albert Bray

CURRENT METAR :
  • 240900Z AUTO 17007KT 9999 FEW032 SCT170 M01/M02 Q1001 NOSIG

EXPIRED METARs :
  • 240830Z AUTO 16006KT 9999 FEW032 M02/M02 Q1001 NOSIG
  • 240800Z AUTO 17005KT 9999 BKN032 BKN190 M02/M03 Q1001 NOSIG
  • 240730Z AUTO 17004KT 9999 FEW032 M02/M03 Q1001 NOSIG
  • 240700Z AUTO 17005KT CAVOK M02/M03 Q1001 NOSIG
  • 240630Z AUTO 20005KT CAVOK M02/M03 Q1000 NOSIG

TAF TAF LFAQ
Valid from the 24 at 09:00 until the 24 at 18:00 UTC


240800Z 2409/2418 VRB03KT 9999 SCT030 BKN130
BECMG 2409/2411 16012KT
BECMG 2413/2414 1200 SN OVC002
BECMG 2416/2418 22010KT 9999 NSW OVC007



MET'MAP, your aeronautical weather chart ! - Copyright ORBIFLY December 2007 - Disclaimer

ORBIFLY MET'MAP TEAM :

Programming & Development : Alexandra Zaïnal
Concept & original design : Baudouin d'Aumeries
Assistance for programming : Marc-Olivier Méhu
Technical & hardware support : Manuel Goepfert

Contact : metmap@orbifly.com




SOURCES & CREDITS :

   NOAA